sensor_id;sensor_type;location;lat;lon;timestamp;P1;durP1;ratioP1;P2;durP2;ratioP2
28086;SDS011;15392;48.912;8.380;2024-02-15T00:01:56;0.40;;;0.30;;
28086;SDS011;15392;48.912;8.380;2024-02-15T00:04:42;0.00;;;0.00;;
28086;SDS011;15392;48.912;8.380;2024-02-15T00:07:29;0.10;;;0.10;;
28086;SDS011;15392;48.912;8.380;2024-02-15T00:10:15;0.20;;;0.20;;
28086;SDS011;15392;48.912;8.380;2024-02-15T00:13:01;0.70;;;0.40;;
28086;SDS011;15392;48.912;8.380;2024-02-15T00:15:47;1.45;;;0.30;;
28086;SDS011;15392;48.912;8.380;2024-02-15T00:18:33;0.20;;;0.20;;
28086;SDS011;15392;48.912;8.380;2024-02-15T00:21:19;0.30;;;0.10;;
28086;SDS011;15392;48.912;8.380;2024-02-15T00:24:05;0.38;;;0.35;;
28086;SDS011;15392;48.912;8.380;2024-02-15T00:26:52;0.38;;;0.30;;
28086;SDS011;15392;48.912;8.380;2024-02-15T00:29:39;0.25;;;0.25;;
28086;SDS011;15392;48.912;8.380;2024-02-15T00:32:25;0.22;;;0.20;;
28086;SDS011;15392;48.912;8.380;2024-02-15T00:35:11;0.28;;;0.25;;
28086;SDS011;15392;48.912;8.380;2024-02-15T00:37:58;0.40;;;0.40;;
28086;SDS011;15392;48.912;8.380;2024-02-15T00:40:44;0.20;;;0.20;;
28086;SDS011;15392;48.912;8.380;2024-02-15T00:43:33;0.30;;;0.20;;
28086;SDS011;15392;48.912;8.380;2024-02-15T00:46:21;0.82;;;0.52;;
28086;SDS011;15392;48.912;8.380;2024-02-15T00:49:07;0.55;;;0.38;;
28086;SDS011;15392;48.912;8.380;2024-02-15T00:51:53;0.40;;;0.30;;
28086;SDS011;15392;48.912;8.380;2024-02-15T00:54:39;0.30;;;0.20;;
28086;SDS011;15392;48.912;8.380;2024-02-15T00:57:25;0.20;;;0.20;;
28086;SDS011;15392;48.912;8.380;2024-02-15T01:00:12;0.20;;;0.20;;
28086;SDS011;15392;48.912;8.380;2024-02-15T01:02:58;0.70;;;0.40;;
28086;SDS011;15392;48.912;8.380;2024-02-15T01:05:45;0.43;;;0.40;;
28086;SDS011;15392;48.912;8.380;2024-02-15T01:08:31;0.20;;;0.20;;
28086;SDS011;15392;48.912;8.380;2024-02-15T01:11:18;0.32;;;0.32;;
28086;SDS011;15392;48.912;8.380;2024-02-15T01:14:04;0.25;;;0.22;;
28086;SDS011;15392;48.912;8.380;2024-02-15T01:16:50;0.30;;;0.28;;
28086;SDS011;15392;48.912;8.380;2024-02-15T01:19:36;0.28;;;0.28;;
28086;SDS011;15392;48.912;8.380;2024-02-15T01:22:22;0.20;;;0.20;;
28086;SDS011;15392;48.912;8.380;2024-02-15T01:25:10;0.50;;;0.40;;
28086;SDS011;15392;48.912;8.380;2024-02-15T01:27:56;0.57;;;0.20;;
28086;SDS011;15392;48.912;8.380;2024-02-15T01:30:42;0.47;;;0.40;;
28086;SDS011;15392;48.912;8.380;2024-02-15T01:33:29;0.30;;;0.30;;
28086;SDS011;15392;48.912;8.380;2024-02-15T01:36:17;0.17;;;0.17;;
28086;SDS011;15392;48.912;8.380;2024-02-15T01:39:03;0.35;;;0.35;;
28086;SDS011;15392;48.912;8.380;2024-02-15T01:41:49;0.25;;;0.25;;
28086;SDS011;15392;48.912;8.380;2024-02-15T01:44:36;0.22;;;0.20;;
28086;SDS011;15392;48.912;8.380;2024-02-15T01:47:22;0.47;;;0.47;;
28086;SDS011;15392;48.912;8.380;2024-02-15T01:50:11;1.02;;;0.40;;
28086;SDS011;15392;48.912;8.380;2024-02-15T01:52:58;0.25;;;0.25;;
28086;SDS011;15392;48.912;8.380;2024-02-15T01:55:46;0.32;;;0.20;;
28086;SDS011;15392;48.912;8.380;2024-02-15T01:58:32;0.20;;;0.20;;
28086;SDS011;15392;48.912;8.380;2024-02-15T02:01:20;0.30;;;0.30;;
28086;SDS011;15392;48.912;8.380;2024-02-15T02:04:07;1.30;;;0.47;;
28086;SDS011;15392;48.912;8.380;2024-02-15T02:06:54;0.30;;;0.30;;
28086;SDS011;15392;48.912;8.380;2024-02-15T02:09:44;0.47;;;0.30;;
28086;SDS011;15392;48.912;8.380;2024-02-15T02:12:32;0.20;;;0.20;;
28086;SDS011;15392;48.912;8.380;2024-02-15T02:15:18;0.30;;;0.30;;
28086;SDS011;15392;48.912;8.380;2024-02-15T02:18:05;0.35;;;0.30;;
28086;SDS011;15392;48.912;8.380;2024-02-15T02:20:51;0.20;;;0.20;;
28086;SDS011;15392;48.912;8.380;2024-02-15T02:23:41;0.20;;;0.20;;
28086;SDS011;15392;48.912;8.380;2024-02-15T02:26:30;0.43;;;0.43;;
28086;SDS011;15392;48.912;8.380;2024-02-15T02:29:16;0.30;;;0.30;;
28086;SDS011;15392;48.912;8.380;2024-02-15T02:32:02;0.28;;;0.28;;
28086;SDS011;15392;48.912;8.380;2024-02-15T02:34:50;0.20;;;0.20;;
28086;SDS011;15392;48.912;8.380;2024-02-15T02:37:36;0.60;;;0.40;;
28086;SDS011;15392;48.912;8.380;2024-02-15T02:40:22;0.15;;;0.15;;
28086;SDS011;15392;48.912;8.380;2024-02-15T02:43:08;0.20;;;0.20;;
28086;SDS011;15392;48.912;8.380;2024-02-15T02:45:55;0.30;;;0.30;;
28086;SDS011;15392;48.912;8.380;2024-02-15T02:48:43;0.70;;;0.30;;
28086;SDS011;15392;48.912;8.380;2024-02-15T02:51:30;0.20;;;0.20;;
28086;SDS011;15392;48.912;8.380;2024-02-15T02:54:16;0.43;;;0.30;;
28086;SDS011;15392;48.912;8.380;2024-02-15T02:57:02;0.35;;;0.20;;
28086;SDS011;15392;48.912;8.380;2024-02-15T02:59:51;0.30;;;0.30;;
28086;SDS011;15392;48.912;8.380;2024-02-15T03:02:38;0.20;;;0.20;;
28086;SDS011;15392;48.912;8.380;2024-02-15T03:05:25;0.20;;;0.20;;
28086;SDS011;15392;48.912;8.380;2024-02-15T03:08:12;0.20;;;0.20;;
28086;SDS011;15392;48.912;8.380;2024-02-15T03:10:58;0.20;;;0.20;;
28086;SDS011;15392;48.912;8.380;2024-02-15T03:13:44;0.20;;;0.20;;
28086;SDS011;15392;48.912;8.380;2024-02-15T03:16:31;0.20;;;0.20;;
28086;SDS011;15392;48.912;8.380;2024-02-15T03:19:17;0.30;;;0.30;;
28086;SDS011;15392;48.912;8.380;2024-02-15T03:22:03;0.38;;;0.38;;
28086;SDS011;15392;48.912;8.380;2024-02-15T03:24:49;0.40;;;0.40;;
28086;SDS011;15392;48.912;8.380;2024-02-15T03:27:36;0.30;;;0.30;;
28086;SDS011;15392;48.912;8.380;2024-02-15T03:30:26;0.40;;;0.40;;
28086;SDS011;15392;48.912;8.380;2024-02-15T03:33:14;0.30;;;0.30;;
28086;SDS011;15392;48.912;8.380;2024-02-15T03:36:01;1.10;;;0.40;;
28086;SDS011;15392;48.912;8.380;2024-02-15T03:38:47;0.30;;;0.30;;
28086;SDS011;15392;48.912;8.380;2024-02-15T03:41:33;0.20;;;0.20;;
28086;SDS011;15392;48.912;8.380;2024-02-15T03:44:19;0.17;;;0.17;;
28086;SDS011;15392;48.912;8.380;2024-02-15T03:47:05;0.32;;;0.32;;
28086;SDS011;15392;48.912;8.380;2024-02-15T03:49:52;0.32;;;0.30;;
28086;SDS011;15392;48.912;8.380;2024-02-15T03:52:39;0.40;;;0.40;;
28086;SDS011;15392;48.912;8.380;2024-02-15T03:55:26;0.28;;;0.28;;
28086;SDS011;15392;48.912;8.380;2024-02-15T03:58:12;1.60;;;0.40;;
28086;SDS011;15392;48.912;8.380;2024-02-15T04:01:00;0.20;;;0.20;;
28086;SDS011;15392;48.912;8.380;2024-02-15T04:03:47;0.20;;;0.20;;
28086;SDS011;15392;48.912;8.380;2024-02-15T04:06:33;0.40;;;0.30;;
28086;SDS011;15392;48.912;8.380;2024-02-15T04:09:19;0.57;;;0.40;;
28086;SDS011;15392;48.912;8.380;2024-02-15T04:12:06;0.30;;;0.30;;
28086;SDS011;15392;48.912;8.380;2024-02-15T04:14:52;1.23;;;0.50;;
28086;SDS011;15392;48.912;8.380;2024-02-15T04:17:40;0.43;;;0.43;;
28086;SDS011;15392;48.912;8.380;2024-02-15T04:20:27;0.43;;;0.43;;
28086;SDS011;15392;48.912;8.380;2024-02-15T04:23:14;0.25;;;0.25;;
28086;SDS011;15392;48.912;8.380;2024-02-15T04:26:00;0.45;;;0.45;;
28086;SDS011;15392;48.912;8.380;2024-02-15T04:28:46;0.13;;;0.13;;
28086;SDS011;15392;48.912;8.380;2024-02-15T04:31:33;0.43;;;0.40;;
28086;SDS011;15392;48.912;8.380;2024-02-15T04:34:22;0.30;;;0.30;;
28086;SDS011;15392;48.912;8.380;2024-02-15T04:37:08;0.47;;;0.32;;
28086;SDS011;15392;48.912;8.380;2024-02-15T04:39:54;0.30;;;0.30;;
28086;SDS011;15392;48.912;8.380;2024-02-15T04:42:41;0.35;;;0.28;;
28086;SDS011;15392;48.912;8.380;2024-02-15T04:45:30;0.20;;;0.20;;
28086;SDS011;15392;48.912;8.380;2024-02-15T04:48:17;0.40;;;0.30;;
28086;SDS011;15392;48.912;8.380;2024-02-15T04:51:04;0.40;;;0.32;;
28086;SDS011;15392;48.912;8.380;2024-02-15T04:53:50;0.32;;;0.30;;
28086;SDS011;15392;48.912;8.380;2024-02-15T04:56:36;0.50;;;0.40;;
28086;SDS011;15392;48.912;8.380;2024-02-15T04:59:22;0.30;;;0.30;;
28086;SDS011;15392;48.912;8.380;2024-02-15T05:02:11;0.40;;;0.40;;
28086;SDS011;15392;48.912;8.380;2024-02-15T05:04:57;0.20;;;0.20;;
28086;SDS011;15392;48.912;8.380;2024-02-15T05:07:43;0.20;;;0.20;;
28086;SDS011;15392;48.912;8.380;2024-02-15T05:10:29;0.35;;;0.32;;
28086;SDS011;15392;48.912;8.380;2024-02-15T05:13:15;0.30;;;0.30;;
28086;SDS011;15392;48.912;8.380;2024-02-15T05:16:02;0.30;;;0.30;;
28086;SDS011;15392;48.912;8.380;2024-02-15T05:18:48;0.30;;;0.30;;
28086;SDS011;15392;48.912;8.380;2024-02-15T05:21:37;0.32;;;0.30;;
28086;SDS011;15392;48.912;8.380;2024-02-15T05:24:23;0.30;;;0.30;;
28086;SDS011;15392;48.912;8.380;2024-02-15T05:27:09;0.82;;;0.47;;
28086;SDS011;15392;48.912;8.380;2024-02-15T05:29:55;0.38;;;0.38;;
28086;SDS011;15392;48.912;8.380;2024-02-15T05:32:41;0.40;;;0.40;;
28086;SDS011;15392;48.912;8.380;2024-02-15T05:35:28;0.22;;;0.20;;
28086;SDS011;15392;48.912;8.380;2024-02-15T05:38:14;0.38;;;0.38;;
28086;SDS011;15392;48.912;8.380;2024-02-15T05:41:02;0.38;;;0.28;;
28086;SDS011;15392;48.912;8.380;2024-02-15T05:43:48;0.30;;;0.30;;
28086;SDS011;15392;48.912;8.380;2024-02-15T05:46:34;0.40;;;0.40;;
28086;SDS011;15392;48.912;8.380;2024-02-15T05:49:25;0.47;;;0.47;;
28086;SDS011;15392;48.912;8.380;2024-02-15T05:52:11;0.40;;;0.40;;
28086;SDS011;15392;48.912;8.380;2024-02-15T05:54:57;0.30;;;0.30;;
28086;SDS011;15392;48.912;8.380;2024-02-15T05:57:44;0.22;;;0.22;;
28086;SDS011;15392;48.912;8.380;2024-02-15T06:00:30;0.35;;;0.35;;
28086;SDS011;15392;48.912;8.380;2024-02-15T06:03:16;0.30;;;0.30;;
28086;SDS011;15392;48.912;8.380;2024-02-15T06:06:03;1.10;;;0.30;;
28086;SDS011;15392;48.912;8.380;2024-02-15T06:08:52;0.40;;;0.40;;
28086;SDS011;15392;48.912;8.380;2024-02-15T06:11:39;0.32;;;0.32;;
28086;SDS011;15392;48.912;8.380;2024-02-15T06:14:25;0.25;;;0.25;;
28086;SDS011;15392;48.912;8.380;2024-02-15T06:17:12;0.30;;;0.30;;
28086;SDS011;15392;48.912;8.380;2024-02-15T06:19:59;0.30;;;0.30;;
28086;SDS011;15392;48.912;8.380;2024-02-15T06:22:46;0.22;;;0.22;;
28086;SDS011;15392;48.912;8.380;2024-02-15T06:25:35;0.35;;;0.35;;
28086;SDS011;15392;48.912;8.380;2024-02-15T06:28:22;0.20;;;0.20;;
28086;SDS011;15392;48.912;8.380;2024-02-15T06:31:26;0.60;;;0.40;;
28086;SDS011;15392;48.912;8.380;2024-02-15T06:34:30;0.50;;;0.28;;
28086;SDS011;15392;48.912;8.380;2024-02-15T06:37:35;0.30;;;0.30;;
28086;SDS011;15392;48.912;8.380;2024-02-15T06:40:41;0.40;;;0.40;;
28086;SDS011;15392;48.912;8.380;2024-02-15T06:43:27;0.38;;;0.32;;
28086;SDS011;15392;48.912;8.380;2024-02-15T06:46:13;0.40;;;0.40;;
28086;SDS011;15392;48.912;8.380;2024-02-15T06:49:00;0.30;;;0.30;;
28086;SDS011;15392;48.912;8.380;2024-02-15T06:51:49;1.27;;;0.40;;
28086;SDS011;15392;48.912;8.380;2024-02-15T06:54:36;0.20;;;0.20;;
28086;SDS011;15392;48.912;8.380;2024-02-15T06:57:26;0.30;;;0.30;;
28086;SDS011;15392;48.912;8.380;2024-02-15T07:00:12;2.38;;;0.90;;
28086;SDS011;15392;48.912;8.380;2024-02-15T07:03:00;0.40;;;0.40;;
28086;SDS011;15392;48.912;8.380;2024-02-15T07:05:46;0.43;;;0.43;;
28086;SDS011;15392;48.912;8.380;2024-02-15T07:08:33;0.40;;;0.40;;
28086;SDS011;15392;48.912;8.380;2024-02-15T07:11:19;0.70;;;0.50;;
28086;SDS011;15392;48.912;8.380;2024-02-15T07:14:05;0.40;;;0.40;;
28086;SDS011;15392;48.912;8.380;2024-02-15T07:16:52;0.30;;;0.28;;
28086;SDS011;15392;48.912;8.380;2024-02-15T07:19:52;0.57;;;0.50;;
28086;SDS011;15392;48.912;8.380;2024-02-15T07:22:38;0.40;;;0.40;;
28086;SDS011;15392;48.912;8.380;2024-02-15T07:25:24;0.32;;;0.32;;
28086;SDS011;15392;48.912;8.380;2024-02-15T07:28:13;0.43;;;0.43;;
28086;SDS011;15392;48.912;8.380;2024-02-15T07:30:59;0.30;;;0.30;;
28086;SDS011;15392;48.912;8.380;2024-02-15T07:33:49;0.40;;;0.40;;
28086;SDS011;15392;48.912;8.380;2024-02-15T07:36:36;0.32;;;0.32;;
28086;SDS011;15392;48.912;8.380;2024-02-15T07:39:24;2.50;;;2.40;;
28086;SDS011;15392;48.912;8.380;2024-02-15T07:42:13;2.55;;;2.45;;
28086;SDS011;15392;48.912;8.380;2024-02-15T07:44:59;1.75;;;1.65;;
28086;SDS011;15392;48.912;8.380;2024-02-15T07:47:45;1.27;;;1.20;;
28086;SDS011;15392;48.912;8.380;2024-02-15T07:50:31;1.08;;;1.08;;
28086;SDS011;15392;48.912;8.380;2024-02-15T07:53:17;0.70;;;0.70;;
28086;SDS011;15392;48.912;8.380;2024-02-15T07:56:04;0.90;;;0.90;;
28086;SDS011;15392;48.912;8.380;2024-02-15T07:58:50;0.70;;;0.70;;
28086;SDS011;15392;48.912;8.380;2024-02-15T08:01:39;1.67;;;1.58;;
28086;SDS011;15392;48.912;8.380;2024-02-15T08:04:26;1.50;;;1.40;;
28086;SDS011;15392;48.912;8.380;2024-02-15T08:07:13;1.98;;;1.88;;
28086;SDS011;15392;48.912;8.380;2024-02-15T08:10:00;2.97;;;2.78;;
28086;SDS011;15392;48.912;8.380;2024-02-15T08:12:46;2.50;;;2.40;;
28086;SDS011;15392;48.912;8.380;2024-02-15T08:15:37;4.43;;;4.20;;
28086;SDS011;15392;48.912;8.380;2024-02-15T08:18:23;4.60;;;4.30;;
28086;SDS011;15392;48.912;8.380;2024-02-15T08:21:11;6.10;;;5.70;;
28086;SDS011;15392;48.912;8.380;2024-02-15T08:23:58;6.78;;;6.22;;
28086;SDS011;15392;48.912;8.380;2024-02-15T08:26:46;5.85;;;5.55;;
28086;SDS011;15392;48.912;8.380;2024-02-15T08:29:33;4.32;;;4.07;;
28086;SDS011;15392;48.912;8.380;2024-02-15T08:32:19;3.03;;;2.92;;
28086;SDS011;15392;48.912;8.380;2024-02-15T08:35:05;3.05;;;2.95;;
28086;SDS011;15392;48.912;8.380;2024-02-15T08:37:53;1.88;;;1.77;;
28086;SDS011;15392;48.912;8.380;2024-02-15T08:40:41;2.00;;;1.90;;
28086;SDS011;15392;48.912;8.380;2024-02-15T08:43:27;1.85;;;1.75;;
28086;SDS011;15392;48.912;8.380;2024-02-15T08:46:13;1.23;;;1.20;;
28086;SDS011;15392;48.912;8.380;2024-02-15T08:48:59;0.95;;;0.95;;
28086;SDS011;15392;48.912;8.380;2024-02-15T08:51:46;1.20;;;0.70;;
28086;SDS011;15392;48.912;8.380;2024-02-15T08:54:32;0.70;;;0.70;;
28086;SDS011;15392;48.912;8.380;2024-02-15T08:57:18;0.63;;;0.63;;
28086;SDS011;15392;48.912;8.380;2024-02-15T09:00:04;0.30;;;0.30;;
28086;SDS011;15392;48.912;8.380;2024-02-15T09:02:58;0.55;;;0.55;;
28086;SDS011;15392;48.912;8.380;2024-02-15T09:05:44;0.60;;;0.60;;
28086;SDS011;15392;48.912;8.380;2024-02-15T09:08:30;0.63;;;0.40;;
28086;SDS011;15392;48.912;8.380;2024-02-15T09:11:16;0.57;;;0.57;;
28086;SDS011;15392;48.912;8.380;2024-02-15T09:14:02;0.50;;;0.50;;
28086;SDS011;15392;48.912;8.380;2024-02-15T09:16:48;0.60;;;0.60;;
28086;SDS011;15392;48.912;8.380;2024-02-15T09:19:34;0.47;;;0.47;;
28086;SDS011;15392;48.912;8.380;2024-02-15T09:22:20;0.93;;;0.50;;
28086;SDS011;15392;48.912;8.380;2024-02-15T09:25:07;0.50;;;0.50;;
28086;SDS011;15392;48.912;8.380;2024-02-15T09:27:55;0.35;;;0.35;;
28086;SDS011;15392;48.912;8.380;2024-02-15T09:30:41;0.47;;;0.47;;
28086;SDS011;15392;48.912;8.380;2024-02-15T09:33:27;0.40;;;0.40;;
28086;SDS011;15392;48.912;8.380;2024-02-15T09:36:13;0.35;;;0.25;;
28086;SDS011;15392;48.912;8.380;2024-02-15T09:39:00;0.43;;;0.43;;
28086;SDS011;15392;48.912;8.380;2024-02-15T09:41:46;0.40;;;0.40;;
28086;SDS011;15392;48.912;8.380;2024-02-15T09:44:36;0.40;;;0.40;;
28086;SDS011;15392;48.912;8.380;2024-02-15T09:47:25;0.40;;;0.40;;
28086;SDS011;15392;48.912;8.380;2024-02-15T09:50:17;0.40;;;0.40;;
28086;SDS011;15392;48.912;8.380;2024-02-15T09:53:03;0.20;;;0.20;;
28086;SDS011;15392;48.912;8.380;2024-02-15T09:55:53;0.45;;;0.40;;
28086;SDS011;15392;48.912;8.380;2024-02-15T09:58:40;0.35;;;0.35;;
28086;SDS011;15392;48.912;8.380;2024-02-15T10:01:27;0.22;;;0.22;;
28086;SDS011;15392;48.912;8.380;2024-02-15T10:04:16;0.38;;;0.30;;
28086;SDS011;15392;48.912;8.380;2024-02-15T10:07:02;1.25;;;0.40;;
28086;SDS011;15392;48.912;8.380;2024-02-15T10:09:49;0.57;;;0.57;;
28086;SDS011;15392;48.912;8.380;2024-02-15T10:12:38;0.32;;;0.32;;
28086;SDS011;15392;48.912;8.380;2024-02-15T10:15:27;0.30;;;0.30;;
28086;SDS011;15392;48.912;8.380;2024-02-15T10:18:24;0.30;;;0.30;;
28086;SDS011;15392;48.912;8.380;2024-02-15T10:21:10;1.08;;;0.40;;
28086;SDS011;15392;48.912;8.380;2024-02-15T10:24:10;0.40;;;0.40;;
28086;SDS011;15392;48.912;8.380;2024-02-15T10:27:00;0.30;;;0.30;;
28086;SDS011;15392;48.912;8.380;2024-02-15T10:29:49;0.30;;;0.30;;
28086;SDS011;15392;48.912;8.380;2024-02-15T10:32:35;0.32;;;0.32;;
28086;SDS011;15392;48.912;8.380;2024-02-15T10:35:21;0.15;;;0.15;;
28086;SDS011;15392;48.912;8.380;2024-02-15T10:38:09;0.30;;;0.30;;
28086;SDS011;15392;48.912;8.380;2024-02-15T10:41:02;0.38;;;0.30;;
28086;SDS011;15392;48.912;8.380;2024-02-15T10:43:52;0.40;;;0.40;;
28086;SDS011;15392;48.912;8.380;2024-02-15T10:46:39;0.40;;;0.40;;
28086;SDS011;15392;48.912;8.380;2024-02-15T10:49:27;0.30;;;0.30;;
28086;SDS011;15392;48.912;8.380;2024-02-15T10:52:13;0.40;;;0.40;;
28086;SDS011;15392;48.912;8.380;2024-02-15T10:55:04;0.55;;;0.30;;
28086;SDS011;15392;48.912;8.380;2024-02-15T10:57:54;0.30;;;0.30;;
28086;SDS011;15392;48.912;8.380;2024-02-15T11:00:43;0.40;;;0.40;;
28086;SDS011;15392;48.912;8.380;2024-02-15T11:03:34;0.40;;;0.22;;
28086;SDS011;15392;48.912;8.380;2024-02-15T11:06:22;0.20;;;0.20;;
28086;SDS011;15392;48.912;8.380;2024-02-15T11:11:59;0.40;;;0.40;;
28086;SDS011;15392;48.912;8.380;2024-02-15T11:14:46;0.30;;;0.30;;
28086;SDS011;15392;48.912;8.380;2024-02-15T11:23:24;0.45;;;0.30;;
28086;SDS011;15392;48.912;8.380;2024-02-15T11:26:42;0.30;;;0.30;;
28086;SDS011;15392;48.912;8.380;2024-02-15T11:29:51;0.30;;;0.30;;
28086;SDS011;15392;48.912;8.380;2024-02-15T11:32:49;0.40;;;0.40;;
28086;SDS011;15392;48.912;8.380;2024-02-15T11:35:39;0.20;;;0.20;;
28086;SDS011;15392;48.912;8.380;2024-02-15T11:38:55;0.40;;;0.40;;
28086;SDS011;15392;48.912;8.380;2024-02-15T11:41:41;0.30;;;0.20;;
28086;SDS011;15392;48.912;8.380;2024-02-15T11:44:27;0.30;;;0.30;;
28086;SDS011;15392;48.912;8.380;2024-02-15T11:47:13;0.38;;;0.35;;
28086;SDS011;15392;48.912;8.380;2024-02-15T11:50:06;0.20;;;0.20;;
28086;SDS011;15392;48.912;8.380;2024-02-15T11:53:03;0.40;;;0.20;;
28086;SDS011;15392;48.912;8.380;2024-02-15T11:55:55;1.00;;;0.28;;
28086;SDS011;15392;48.912;8.380;2024-02-15T11:59:00;0.40;;;0.40;;
28086;SDS011;15392;48.912;8.380;2024-02-15T12:01:52;0.20;;;0.20;;
28086;SDS011;15392;48.912;8.380;2024-02-15T12:04:56;0.30;;;0.30;;
28086;SDS011;15392;48.912;8.380;2024-02-15T12:08:01;0.30;;;0.28;;
28086;SDS011;15392;48.912;8.380;2024-02-15T12:11:06;0.30;;;0.30;;
28086;SDS011;15392;48.912;8.380;2024-02-15T12:14:14;0.20;;;0.20;;
28086;SDS011;15392;48.912;8.380;2024-02-15T12:17:20;0.30;;;0.30;;
28086;SDS011;15392;48.912;8.380;2024-02-15T12:20:27;0.30;;;0.30;;
28086;SDS011;15392;48.912;8.380;2024-02-15T12:23:14;0.30;;;0.30;;
28086;SDS011;15392;48.912;8.380;2024-02-15T12:26:03;0.10;;;0.10;;
28086;SDS011;15392;48.912;8.380;2024-02-15T12:28:50;0.40;;;0.30;;
28086;SDS011;15392;48.912;8.380;2024-02-15T12:31:40;0.38;;;0.38;;
28086;SDS011;15392;48.912;8.380;2024-02-15T12:34:26;0.35;;;0.35;;
28086;SDS011;15392;48.912;8.380;2024-02-15T12:37:12;0.40;;;0.22;;
28086;SDS011;15392;48.912;8.380;2024-02-15T12:39:58;0.32;;;0.32;;
28086;SDS011;15392;48.912;8.380;2024-02-15T12:43:04;0.20;;;0.20;;
28086;SDS011;15392;48.912;8.380;2024-02-15T12:45:50;0.22;;;0.22;;
28086;SDS011;15392;48.912;8.380;2024-02-15T12:48:37;0.52;;;0.30;;
28086;SDS011;15392;48.912;8.380;2024-02-15T12:51:23;1.00;;;0.20;;
28086;SDS011;15392;48.912;8.380;2024-02-15T12:54:10;0.30;;;0.30;;
28086;SDS011;15392;48.912;8.380;2024-02-15T12:57:07;0.30;;;0.30;;
28086;SDS011;15392;48.912;8.380;2024-02-15T12:59:58;0.30;;;0.30;;
28086;SDS011;15392;48.912;8.380;2024-02-15T13:02:44;0.30;;;0.30;;
28086;SDS011;15392;48.912;8.380;2024-02-15T13:05:34;0.52;;;0.40;;
28086;SDS011;15392;48.912;8.380;2024-02-15T13:08:21;0.20;;;0.20;;
28086;SDS011;15392;48.912;8.380;2024-02-15T13:11:08;0.32;;;0.32;;
28086;SDS011;15392;48.912;8.380;2024-02-15T13:13:58;0.40;;;0.30;;
28086;SDS011;15392;48.912;8.380;2024-02-15T13:16:44;0.20;;;0.20;;
28086;SDS011;15392;48.912;8.380;2024-02-15T13:19:32;0.30;;;0.20;;
28086;SDS011;15392;48.912;8.380;2024-02-15T13:22:21;0.22;;;0.22;;
28086;SDS011;15392;48.912;8.380;2024-02-15T13:25:07;1.17;;;0.40;;
28086;SDS011;15392;48.912;8.380;2024-02-15T13:27:54;0.52;;;0.52;;
28086;SDS011;15392;48.912;8.380;2024-02-15T13:30:42;0.40;;;0.40;;
28086;SDS011;15392;48.912;8.380;2024-02-15T13:33:30;0.30;;;0.30;;
28086;SDS011;15392;48.912;8.380;2024-02-15T13:36:17;0.47;;;0.47;;
28086;SDS011;15392;48.912;8.380;2024-02-15T13:39:05;0.50;;;0.50;;
28086;SDS011;15392;48.912;8.380;2024-02-15T13:41:54;0.60;;;0.60;;
28086;SDS011;15392;48.912;8.380;2024-02-15T13:44:41;1.02;;;0.55;;
28086;SDS011;15392;48.912;8.380;2024-02-15T13:47:32;0.50;;;0.50;;
28086;SDS011;15392;48.912;8.380;2024-02-15T13:50:18;0.40;;;0.40;;
28086;SDS011;15392;48.912;8.380;2024-02-15T13:53:05;0.40;;;0.40;;
28086;SDS011;15392;48.912;8.380;2024-02-15T13:55:52;0.30;;;0.30;;
28086;SDS011;15392;48.912;8.380;2024-02-15T13:58:38;0.32;;;0.30;;
28086;SDS011;15392;48.912;8.380;2024-02-15T14:01:24;0.50;;;0.40;;
28086;SDS011;15392;48.912;8.380;2024-02-15T14:04:11;0.40;;;0.40;;
28086;SDS011;15392;48.912;8.380;2024-02-15T14:06:57;0.40;;;0.40;;
28086;SDS011;15392;48.912;8.380;2024-02-15T14:09:43;0.30;;;0.30;;
28086;SDS011;15392;48.912;8.380;2024-02-15T14:12:29;0.40;;;0.35;;
28086;SDS011;15392;48.912;8.380;2024-02-15T14:15:15;0.30;;;0.30;;
28086;SDS011;15392;48.912;8.380;2024-02-15T14:18:04;0.40;;;0.40;;
28086;SDS011;15392;48.912;8.380;2024-02-15T14:21:03;0.35;;;0.35;;
28086;SDS011;15392;48.912;8.380;2024-02-15T14:23:49;0.30;;;0.30;;
28086;SDS011;15392;48.912;8.380;2024-02-15T14:26:35;0.40;;;0.40;;
28086;SDS011;15392;48.912;8.380;2024-02-15T14:29:21;0.43;;;0.43;;
28086;SDS011;15392;48.912;8.380;2024-02-15T14:32:11;0.43;;;0.30;;
28086;SDS011;15392;48.912;8.380;2024-02-15T14:35:15;0.38;;;0.35;;
28086;SDS011;15392;48.912;8.380;2024-02-15T14:38:03;0.40;;;0.40;;
28086;SDS011;15392;48.912;8.380;2024-02-15T14:40:51;0.30;;;0.30;;
28086;SDS011;15392;48.912;8.380;2024-02-15T14:43:41;0.57;;;0.57;;
28086;SDS011;15392;48.912;8.380;2024-02-15T14:46:28;0.30;;;0.30;;
28086;SDS011;15392;48.912;8.380;2024-02-15T14:49:15;0.32;;;0.30;;
28086;SDS011;15392;48.912;8.380;2024-02-15T14:52:02;0.30;;;0.30;;
28086;SDS011;15392;48.912;8.380;2024-02-15T14:54:48;0.40;;;0.40;;
28086;SDS011;15392;48.912;8.380;2024-02-15T14:57:35;0.50;;;0.50;;
28086;SDS011;15392;48.912;8.380;2024-02-15T15:00:23;0.50;;;0.50;;
28086;SDS011;15392;48.912;8.380;2024-02-15T15:03:10;0.90;;;0.90;;
28086;SDS011;15392;48.912;8.380;2024-02-15T15:05:59;1.60;;;1.50;;
28086;SDS011;15392;48.912;8.380;2024-02-15T15:09:17;2.45;;;2.28;;
28086;SDS011;15392;48.912;8.380;2024-02-15T15:12:21;1.92;;;1.83;;
28086;SDS011;15392;48.912;8.380;2024-02-15T15:15:24;2.72;;;2.53;;
28086;SDS011;15392;48.912;8.380;2024-02-15T15:18:11;2.10;;;2.00;;
28086;SDS011;15392;48.912;8.380;2024-02-15T15:20:58;1.38;;;1.27;;
28086;SDS011;15392;48.912;8.380;2024-02-15T15:23:44;0.90;;;0.90;;
28086;SDS011;15392;48.912;8.380;2024-02-15T15:26:30;0.60;;;0.60;;
28086;SDS011;15392;48.912;8.380;2024-02-15T15:29:17;0.50;;;0.50;;
28086;SDS011;15392;48.912;8.380;2024-02-15T15:32:04;0.40;;;0.40;;
28086;SDS011;15392;48.912;8.380;2024-02-15T15:34:50;0.40;;;0.30;;
28086;SDS011;15392;48.912;8.380;2024-02-15T15:37:36;0.32;;;0.32;;
28086;SDS011;15392;48.912;8.380;2024-02-15T15:40:23;0.40;;;0.40;;
28086;SDS011;15392;48.912;8.380;2024-02-15T15:43:09;0.30;;;0.30;;
28086;SDS011;15392;48.912;8.380;2024-02-15T15:45:58;0.35;;;0.35;;
28086;SDS011;15392;48.912;8.380;2024-02-15T15:48:44;0.30;;;0.30;;
28086;SDS011;15392;48.912;8.380;2024-02-15T15:51:30;0.20;;;0.20;;
28086;SDS011;15392;48.912;8.380;2024-02-15T15:54:16;0.20;;;0.20;;
28086;SDS011;15392;48.912;8.380;2024-02-15T15:57:04;0.20;;;0.20;;
28086;SDS011;15392;48.912;8.380;2024-02-15T15:59:50;0.20;;;0.20;;
28086;SDS011;15392;48.912;8.380;2024-02-15T16:02:37;0.20;;;0.20;;
28086;SDS011;15392;48.912;8.380;2024-02-15T16:05:24;0.30;;;0.30;;
28086;SDS011;15392;48.912;8.380;2024-02-15T16:08:10;0.30;;;0.30;;
28086;SDS011;15392;48.912;8.380;2024-02-15T16:10:57;0.28;;;0.20;;
28086;SDS011;15392;48.912;8.380;2024-02-15T16:13:43;0.20;;;0.20;;
28086;SDS011;15392;48.912;8.380;2024-02-15T16:16:31;0.88;;;0.88;;
28086;SDS011;15392;48.912;8.380;2024-02-15T16:19:17;1.23;;;1.23;;
28086;SDS011;15392;48.912;8.380;2024-02-15T16:22:03;0.68;;;0.68;;
28086;SDS011;15392;48.912;8.380;2024-02-15T16:24:51;0.63;;;0.63;;
28086;SDS011;15392;48.912;8.380;2024-02-15T16:27:39;0.40;;;0.40;;
28086;SDS011;15392;48.912;8.380;2024-02-15T16:30:28;0.38;;;0.38;;
28086;SDS011;15392;48.912;8.380;2024-02-15T16:33:14;0.40;;;0.40;;
28086;SDS011;15392;48.912;8.380;2024-02-15T16:36:00;0.40;;;0.40;;
28086;SDS011;15392;48.912;8.380;2024-02-15T16:38:46;0.60;;;0.60;;
28086;SDS011;15392;48.912;8.380;2024-02-15T16:41:32;0.50;;;0.50;;
28086;SDS011;15392;48.912;8.380;2024-02-15T16:44:18;0.60;;;0.60;;
28086;SDS011;15392;48.912;8.380;2024-02-15T16:47:04;0.60;;;0.60;;
28086;SDS011;15392;48.912;8.380;2024-02-15T16:49:50;0.50;;;0.50;;
28086;SDS011;15392;48.912;8.380;2024-02-15T16:52:37;0.50;;;0.50;;
28086;SDS011;15392;48.912;8.380;2024-02-15T16:55:23;0.70;;;0.70;;
28086;SDS011;15392;48.912;8.380;2024-02-15T16:58:14;0.75;;;0.75;;
28086;SDS011;15392;48.912;8.380;2024-02-15T17:01:03;1.38;;;1.35;;
28086;SDS011;15392;48.912;8.380;2024-02-15T17:03:49;1.27;;;1.27;;